sensor_id;sensor_type;location;lat;lon;timestamp;P1;durP1;ratioP1;P2;durP2;ratioP2
21012;SDS011;10664;53.582;9.712;2022-07-22T00:01:23;10.88;;;9.77;;
21012;SDS011;10664;53.582;9.712;2022-07-22T00:03:49;9.63;;;8.20;;
21012;SDS011;10664;53.582;9.712;2022-07-22T00:06:15;7.13;;;6.43;;
21012;SDS011;10664;53.582;9.712;2022-07-22T00:08:41;5.82;;;5.20;;
21012;SDS011;10664;53.582;9.712;2022-07-22T00:11:07;5.40;;;4.90;;
21012;SDS011;10664;53.582;9.712;2022-07-22T00:13:33;5.30;;;4.75;;
21012;SDS011;10664;53.582;9.712;2022-07-22T00:15:59;5.13;;;4.72;;
21012;SDS011;10664;53.582;9.712;2022-07-22T00:18:25;5.05;;;4.60;;
21012;SDS011;10664;53.582;9.712;2022-07-22T00:20:51;4.72;;;4.32;;
21012;SDS011;10664;53.582;9.712;2022-07-22T00:23:17;4.68;;;4.28;;
21012;SDS011;10664;53.582;9.712;2022-07-22T00:25:43;5.40;;;4.90;;
21012;SDS011;10664;53.582;9.712;2022-07-22T00:28:09;6.22;;;5.63;;
21012;SDS011;10664;53.582;9.712;2022-07-22T00:30:35;7.55;;;6.70;;
21012;SDS011;10664;53.582;9.712;2022-07-22T00:33:01;8.90;;;7.50;;
21012;SDS011;10664;53.582;9.712;2022-07-22T00:35:27;8.85;;;7.95;;
21012;SDS011;10664;53.582;9.712;2022-07-22T00:37:53;8.02;;;7.18;;
21012;SDS011;10664;53.582;9.712;2022-07-22T00:40:19;6.68;;;5.80;;
21012;SDS011;10664;53.582;9.712;2022-07-22T00:42:45;5.97;;;5.35;;
21012;SDS011;10664;53.582;9.712;2022-07-22T00:45:11;5.22;;;4.72;;
21012;SDS011;10664;53.582;9.712;2022-07-22T00:47:37;4.50;;;4.20;;
21012;SDS011;10664;53.582;9.712;2022-07-22T00:50:03;3.88;;;3.58;;
21012;SDS011;10664;53.582;9.712;2022-07-22T00:52:30;5.03;;;3.60;;
21012;SDS011;10664;53.582;9.712;2022-07-22T00:54:57;4.05;;;3.65;;
21012;SDS011;10664;53.582;9.712;2022-07-22T00:57:24;4.10;;;3.70;;
21012;SDS011;10664;53.582;9.712;2022-07-22T00:59:49;4.55;;;3.72;;
21012;SDS011;10664;53.582;9.712;2022-07-22T01:02:16;4.22;;;3.83;;
21012;SDS011;10664;53.582;9.712;2022-07-22T01:04:41;6.00;;;4.43;;
21012;SDS011;10664;53.582;9.712;2022-07-22T01:07:07;5.07;;;4.53;;
21012;SDS011;10664;53.582;9.712;2022-07-22T01:09:33;5.82;;;4.40;;
21012;SDS011;10664;53.582;9.712;2022-07-22T01:12:00;5.97;;;4.80;;
21012;SDS011;10664;53.582;9.712;2022-07-22T01:14:26;5.82;;;4.68;;
21012;SDS011;10664;53.582;9.712;2022-07-22T01:16:51;6.35;;;4.30;;
21012;SDS011;10664;53.582;9.712;2022-07-22T01:19:17;6.63;;;4.55;;
21012;SDS011;10664;53.582;9.712;2022-07-22T01:21:43;7.63;;;4.65;;
21012;SDS011;10664;53.582;9.712;2022-07-22T01:24:09;7.15;;;4.75;;
21012;SDS011;10664;53.582;9.712;2022-07-22T01:26:35;6.65;;;4.70;;
21012;SDS011;10664;53.582;9.712;2022-07-22T01:29:02;6.30;;;5.18;;
21012;SDS011;10664;53.582;9.712;2022-07-22T01:31:28;6.38;;;4.80;;
21012;SDS011;10664;53.582;9.712;2022-07-22T01:33:54;5.80;;;5.20;;
21012;SDS011;10664;53.582;9.712;2022-07-22T01:36:20;7.90;;;4.75;;
21012;SDS011;10664;53.582;9.712;2022-07-22T01:38:46;6.55;;;4.85;;
21012;SDS011;10664;53.582;9.712;2022-07-22T01:41:12;5.68;;;5.18;;
21012;SDS011;10664;53.582;9.712;2022-07-22T01:43:38;9.48;;;5.55;;
21012;SDS011;10664;53.582;9.712;2022-07-22T01:46:04;5.53;;;5.03;;
21012;SDS011;10664;53.582;9.712;2022-07-22T01:48:30;8.02;;;5.60;;
21012;SDS011;10664;53.582;9.712;2022-07-22T01:50:58;5.18;;;4.65;;
21012;SDS011;10664;53.582;9.712;2022-07-22T01:53:24;6.50;;;4.63;;
21012;SDS011;10664;53.582;9.712;2022-07-22T01:55:50;7.57;;;4.40;;
21012;SDS011;10664;53.582;9.712;2022-07-22T01:58:16;8.60;;;4.10;;
21012;SDS011;10664;53.582;9.712;2022-07-22T02:00:42;5.30;;;4.15;;
21012;SDS011;10664;53.582;9.712;2022-07-22T02:03:08;5.00;;;4.05;;
21012;SDS011;10664;53.582;9.712;2022-07-22T02:05:35;4.68;;;3.60;;
21012;SDS011;10664;53.582;9.712;2022-07-22T02:08:02;4.50;;;3.50;;
21012;SDS011;10664;53.582;9.712;2022-07-22T02:10:28;4.72;;;3.40;;
21012;SDS011;10664;53.582;9.712;2022-07-22T02:12:55;5.68;;;3.25;;
21012;SDS011;10664;53.582;9.712;2022-07-22T02:15:21;6.43;;;3.58;;
21012;SDS011;10664;53.582;9.712;2022-07-22T02:17:47;5.65;;;3.10;;
21012;SDS011;10664;53.582;9.712;2022-07-22T02:20:13;4.15;;;3.17;;
21012;SDS011;10664;53.582;9.712;2022-07-22T02:22:39;3.63;;;2.85;;
21012;SDS011;10664;53.582;9.712;2022-07-22T02:25:05;5.88;;;3.47;;
21012;SDS011;10664;53.582;9.712;2022-07-22T02:27:31;3.80;;;3.28;;
21012;SDS011;10664;53.582;9.712;2022-07-22T02:29:57;4.72;;;3.30;;
21012;SDS011;10664;53.582;9.712;2022-07-22T02:32:23;3.55;;;2.97;;
21012;SDS011;10664;53.582;9.712;2022-07-22T02:34:49;4.28;;;3.10;;
21012;SDS011;10664;53.582;9.712;2022-07-22T02:37:15;4.03;;;3.20;;
21012;SDS011;10664;53.582;9.712;2022-07-22T02:39:41;5.72;;;3.58;;
21012;SDS011;10664;53.582;9.712;2022-07-22T02:42:07;4.82;;;3.50;;
21012;SDS011;10664;53.582;9.712;2022-07-22T02:44:33;6.13;;;3.55;;
21012;SDS011;10664;53.582;9.712;2022-07-22T02:46:59;6.18;;;3.97;;
21012;SDS011;10664;53.582;9.712;2022-07-22T02:49:25;5.38;;;4.15;;
21012;SDS011;10664;53.582;9.712;2022-07-22T02:51:51;5.18;;;3.65;;
21012;SDS011;10664;53.582;9.712;2022-07-22T02:54:17;4.70;;;4.20;;
21012;SDS011;10664;53.582;9.712;2022-07-22T02:56:43;4.20;;;3.25;;
21012;SDS011;10664;53.582;9.712;2022-07-22T02:59:09;6.15;;;4.00;;
21012;SDS011;10664;53.582;9.712;2022-07-22T03:01:35;5.72;;;3.17;;
21012;SDS011;10664;53.582;9.712;2022-07-22T03:04:00;4.55;;;2.67;;
21012;SDS011;10664;53.582;9.712;2022-07-22T03:06:26;5.35;;;2.60;;
21012;SDS011;10664;53.582;9.712;2022-07-22T03:08:52;4.90;;;2.50;;
21012;SDS011;10664;53.582;9.712;2022-07-22T03:11:18;5.72;;;2.60;;
21012;SDS011;10664;53.582;9.712;2022-07-22T03:13:44;4.15;;;2.80;;
21012;SDS011;10664;53.582;9.712;2022-07-22T03:18:40;3.90;;;2.78;;
21012;SDS011;10664;53.582;9.712;2022-07-22T03:21:05;5.05;;;2.63;;
21012;SDS011;10664;53.582;9.712;2022-07-22T03:23:31;4.68;;;2.65;;
21012;SDS011;10664;53.582;9.712;2022-07-22T03:25:57;2.88;;;2.40;;
21012;SDS011;10664;53.582;9.712;2022-07-22T03:28:23;4.30;;;3.03;;
21012;SDS011;10664;53.582;9.712;2022-07-22T03:30:49;4.72;;;3.35;;
21012;SDS011;10664;53.582;9.712;2022-07-22T03:33:15;5.57;;;3.67;;
21012;SDS011;10664;53.582;9.712;2022-07-22T03:35:41;8.00;;;4.00;;
21012;SDS011;10664;53.582;9.712;2022-07-22T03:38:07;4.38;;;3.67;;
21012;SDS011;10664;53.582;9.712;2022-07-22T03:40:33;6.93;;;4.15;;
21012;SDS011;10664;53.582;9.712;2022-07-22T03:42:59;4.60;;;3.65;;
21012;SDS011;10664;53.582;9.712;2022-07-22T03:45:25;5.78;;;4.28;;
21012;SDS011;10664;53.582;9.712;2022-07-22T03:47:51;4.82;;;3.97;;
21012;SDS011;10664;53.582;9.712;2022-07-22T03:50:19;6.70;;;4.40;;
21012;SDS011;10664;53.582;9.712;2022-07-22T03:52:45;5.28;;;4.70;;
21012;SDS011;10664;53.582;9.712;2022-07-22T03:55:11;6.85;;;4.70;;
21012;SDS011;10664;53.582;9.712;2022-07-22T03:57:37;5.50;;;4.47;;
21012;SDS011;10664;53.582;9.712;2022-07-22T04:00:03;5.90;;;4.28;;
21012;SDS011;10664;53.582;9.712;2022-07-22T04:02:31;7.13;;;4.72;;
21012;SDS011;10664;53.582;9.712;2022-07-22T04:04:57;6.18;;;4.90;;
21012;SDS011;10664;53.582;9.712;2022-07-22T04:07:22;7.13;;;5.15;;
21012;SDS011;10664;53.582;9.712;2022-07-22T04:09:48;6.50;;;4.55;;
21012;SDS011;10664;53.582;9.712;2022-07-22T04:12:14;6.63;;;4.43;;
21012;SDS011;10664;53.582;9.712;2022-07-22T04:14:40;5.45;;;4.93;;
21012;SDS011;10664;53.582;9.712;2022-07-22T04:17:06;6.78;;;4.60;;
21012;SDS011;10664;53.582;9.712;2022-07-22T04:19:32;6.15;;;4.43;;
21012;SDS011;10664;53.582;9.712;2022-07-22T04:21:58;7.22;;;4.60;;
21012;SDS011;10664;53.582;9.712;2022-07-22T04:24:24;6.30;;;4.68;;
21012;SDS011;10664;53.582;9.712;2022-07-22T04:26:50;5.43;;;4.43;;
21012;SDS011;10664;53.582;9.712;2022-07-22T04:29:16;6.22;;;4.68;;
21012;SDS011;10664;53.582;9.712;2022-07-22T04:31:42;5.22;;;4.40;;
21012;SDS011;10664;53.582;9.712;2022-07-22T04:34:08;7.53;;;4.22;;
21012;SDS011;10664;53.582;9.712;2022-07-22T04:36:34;8.52;;;4.60;;
21012;SDS011;10664;53.582;9.712;2022-07-22T04:39:00;5.68;;;4.20;;
21012;SDS011;10664;53.582;9.712;2022-07-22T04:41:25;4.30;;;3.97;;
21012;SDS011;10664;53.582;9.712;2022-07-22T04:43:51;6.10;;;3.88;;
21012;SDS011;10664;53.582;9.712;2022-07-22T04:46:17;5.75;;;4.38;;
21012;SDS011;10664;53.582;9.712;2022-07-22T04:48:43;6.75;;;4.50;;
21012;SDS011;10664;53.582;9.712;2022-07-22T04:51:09;5.45;;;3.63;;
21012;SDS011;10664;53.582;9.712;2022-07-22T04:53:35;5.25;;;4.25;;
21012;SDS011;10664;53.582;9.712;2022-07-22T04:56:01;5.22;;;3.70;;
21012;SDS011;10664;53.582;9.712;2022-07-22T04:58:27;6.43;;;4.28;;
21012;SDS011;10664;53.582;9.712;2022-07-22T05:00:53;4.75;;;3.80;;
21012;SDS011;10664;53.582;9.712;2022-07-22T05:03:19;6.07;;;4.25;;
21012;SDS011;10664;53.582;9.712;2022-07-22T05:05:45;5.97;;;3.75;;
21012;SDS011;10664;53.582;9.712;2022-07-22T05:08:11;5.88;;;4.15;;
21012;SDS011;10664;53.582;9.712;2022-07-22T05:10:37;6.45;;;3.80;;
21012;SDS011;10664;53.582;9.712;2022-07-22T05:13:03;5.57;;;3.88;;
21012;SDS011;10664;53.582;9.712;2022-07-22T05:15:29;5.00;;;4.07;;
21012;SDS011;10664;53.582;9.712;2022-07-22T05:17:55;5.70;;;4.40;;
21012;SDS011;10664;53.582;9.712;2022-07-22T05:20:21;5.85;;;4.38;;
21012;SDS011;10664;53.582;9.712;2022-07-22T05:22:47;6.45;;;4.65;;
21012;SDS011;10664;53.582;9.712;2022-07-22T05:25:13;5.90;;;4.40;;
21012;SDS011;10664;53.582;9.712;2022-07-22T05:27:48;7.30;;;4.70;;
21012;SDS011;10664;53.582;9.712;2022-07-22T05:30:14;7.40;;;4.68;;
21012;SDS011;10664;53.582;9.712;2022-07-22T05:32:40;7.25;;;4.85;;
21012;SDS011;10664;53.582;9.712;2022-07-22T05:35:06;9.27;;;4.55;;
21012;SDS011;10664;53.582;9.712;2022-07-22T05:37:32;7.65;;;4.28;;
21012;SDS011;10664;53.582;9.712;2022-07-22T05:39:58;6.68;;;4.82;;
21012;SDS011;10664;53.582;9.712;2022-07-22T05:42:24;6.45;;;4.85;;
21012;SDS011;10664;53.582;9.712;2022-07-22T05:44:49;6.95;;;4.43;;
21012;SDS011;10664;53.582;9.712;2022-07-22T05:47:15;6.82;;;4.93;;
21012;SDS011;10664;53.582;9.712;2022-07-22T05:49:41;7.35;;;4.68;;
21012;SDS011;10664;53.582;9.712;2022-07-22T05:52:07;7.63;;;4.50;;
21012;SDS011;10664;53.582;9.712;2022-07-22T05:54:33;8.30;;;4.40;;
21012;SDS011;10664;53.582;9.712;2022-07-22T05:56:59;6.15;;;4.50;;
21012;SDS011;10664;53.582;9.712;2022-07-22T05:59:25;6.57;;;4.68;;
21012;SDS011;10664;53.582;9.712;2022-07-22T06:01:51;5.97;;;4.63;;
21012;SDS011;10664;53.582;9.712;2022-07-22T06:04:17;8.30;;;4.28;;
21012;SDS011;10664;53.582;9.712;2022-07-22T06:06:43;6.03;;;4.28;;
21012;SDS011;10664;53.582;9.712;2022-07-22T06:09:09;8.45;;;4.63;;
21012;SDS011;10664;53.582;9.712;2022-07-22T06:11:35;5.55;;;3.80;;
21012;SDS011;10664;53.582;9.712;2022-07-22T06:14:01;7.22;;;4.60;;
21012;SDS011;10664;53.582;9.712;2022-07-22T06:16:27;6.60;;;4.95;;
21012;SDS011;10664;53.582;9.712;2022-07-22T06:18:53;5.53;;;4.25;;
21012;SDS011;10664;53.582;9.712;2022-07-22T06:21:19;7.63;;;4.55;;
21012;SDS011;10664;53.582;9.712;2022-07-22T06:23:45;6.10;;;4.32;;
21012;SDS011;10664;53.582;9.712;2022-07-22T06:26:11;7.60;;;4.53;;
21012;SDS011;10664;53.582;9.712;2022-07-22T06:28:37;6.57;;;4.53;;
21012;SDS011;10664;53.582;9.712;2022-07-22T06:31:03;7.78;;;4.53;;
21012;SDS011;10664;53.582;9.712;2022-07-22T06:33:29;8.00;;;4.75;;
21012;SDS011;10664;53.582;9.712;2022-07-22T06:35:58;7.03;;;4.60;;
21012;SDS011;10664;53.582;9.712;2022-07-22T06:38:24;6.63;;;4.65;;
21012;SDS011;10664;53.582;9.712;2022-07-22T06:40:50;6.38;;;3.90;;
21012;SDS011;10664;53.582;9.712;2022-07-22T06:43:15;6.18;;;4.30;;
21012;SDS011;10664;53.582;9.712;2022-07-22T06:45:41;5.85;;;4.25;;
21012;SDS011;10664;53.582;9.712;2022-07-22T06:48:07;6.60;;;4.28;;
21012;SDS011;10664;53.582;9.712;2022-07-22T06:50:33;7.22;;;4.28;;
21012;SDS011;10664;53.582;9.712;2022-07-22T06:52:59;8.18;;;4.47;;
21012;SDS011;10664;53.582;9.712;2022-07-22T06:55:25;7.32;;;4.35;;
21012;SDS011;10664;53.582;9.712;2022-07-22T06:57:51;5.53;;;4.13;;
21012;SDS011;10664;53.582;9.712;2022-07-22T07:00:17;7.65;;;4.13;;
21012;SDS011;10664;53.582;9.712;2022-07-22T07:02:43;6.75;;;4.25;;
21012;SDS011;10664;53.582;9.712;2022-07-22T07:05:09;6.90;;;4.32;;
21012;SDS011;10664;53.582;9.712;2022-07-22T07:07:35;5.57;;;3.90;;
21012;SDS011;10664;53.582;9.712;2022-07-22T07:10:02;7.03;;;4.25;;
21012;SDS011;10664;53.582;9.712;2022-07-22T07:12:28;7.50;;;4.13;;
21012;SDS011;10664;53.582;9.712;2022-07-22T07:14:54;6.53;;;4.18;;
21012;SDS011;10664;53.582;9.712;2022-07-22T07:17:19;6.93;;;3.90;;
21012;SDS011;10664;53.582;9.712;2022-07-22T07:19:45;6.05;;;4.13;;
21012;SDS011;10664;53.582;9.712;2022-07-22T07:22:11;6.22;;;4.07;;
21012;SDS011;10664;53.582;9.712;2022-07-22T07:24:37;5.60;;;3.70;;
21012;SDS011;10664;53.582;9.712;2022-07-22T07:27:03;5.18;;;3.72;;
21012;SDS011;10664;53.582;9.712;2022-07-22T07:29:29;5.28;;;3.72;;
21012;SDS011;10664;53.582;9.712;2022-07-22T07:31:55;6.15;;;4.40;;
21012;SDS011;10664;53.582;9.712;2022-07-22T07:34:21;7.40;;;4.25;;
21012;SDS011;10664;53.582;9.712;2022-07-22T07:36:47;6.95;;;3.80;;
21012;SDS011;10664;53.582;9.712;2022-07-22T07:39:13;4.30;;;3.80;;
21012;SDS011;10664;53.582;9.712;2022-07-22T07:41:39;5.40;;;3.60;;
21012;SDS011;10664;53.582;9.712;2022-07-22T07:44:05;6.60;;;3.60;;
21012;SDS011;10664;53.582;9.712;2022-07-22T07:46:31;5.35;;;3.70;;
21012;SDS011;10664;53.582;9.712;2022-07-22T07:48:57;4.95;;;3.85;;
21012;SDS011;10664;53.582;9.712;2022-07-22T07:51:23;6.53;;;3.75;;
21012;SDS011;10664;53.582;9.712;2022-07-22T07:53:49;4.28;;;3.47;;
21012;SDS011;10664;53.582;9.712;2022-07-22T07:56:15;5.95;;;3.38;;
21012;SDS011;10664;53.582;9.712;2022-07-22T07:58:41;4.18;;;3.03;;
21012;SDS011;10664;53.582;9.712;2022-07-22T08:01:07;4.38;;;3.45;;
21012;SDS011;10664;53.582;9.712;2022-07-22T08:03:33;5.70;;;3.20;;
21012;SDS011;10664;53.582;9.712;2022-07-22T08:05:59;5.22;;;3.35;;
21012;SDS011;10664;53.582;9.712;2022-07-22T08:08:26;6.13;;;3.33;;
21012;SDS011;10664;53.582;9.712;2022-07-22T08:10:53;5.35;;;3.45;;
21012;SDS011;10664;53.582;9.712;2022-07-22T08:13:19;6.07;;;3.30;;
21012;SDS011;10664;53.582;9.712;2022-07-22T08:15:45;6.45;;;3.58;;
21012;SDS011;10664;53.582;9.712;2022-07-22T08:18:11;5.50;;;3.38;;
21012;SDS011;10664;53.582;9.712;2022-07-22T08:20:37;5.68;;;3.25;;
21012;SDS011;10664;53.582;9.712;2022-07-22T08:23:03;6.13;;;3.38;;
21012;SDS011;10664;53.582;9.712;2022-07-22T08:25:29;5.35;;;3.10;;
21012;SDS011;10664;53.582;9.712;2022-07-22T08:27:55;5.47;;;2.97;;
21012;SDS011;10664;53.582;9.712;2022-07-22T08:30:21;4.32;;;3.17;;
21012;SDS011;10664;53.582;9.712;2022-07-22T08:32:48;4.45;;;2.88;;
21012;SDS011;10664;53.582;9.712;2022-07-22T08:35:14;8.77;;;3.30;;
21012;SDS011;10664;53.582;9.712;2022-07-22T08:37:40;5.45;;;3.05;;
21012;SDS011;10664;53.582;9.712;2022-07-22T08:40:06;4.88;;;3.00;;
21012;SDS011;10664;53.582;9.712;2022-07-22T08:42:36;4.00;;;3.05;;
21012;SDS011;10664;53.582;9.712;2022-07-22T08:45:02;4.88;;;3.10;;
21012;SDS011;10664;53.582;9.712;2022-07-22T08:47:28;6.30;;;2.85;;
21012;SDS011;10664;53.582;9.712;2022-07-22T08:49:54;4.20;;;2.85;;
21012;SDS011;10664;53.582;9.712;2022-07-22T08:52:20;4.85;;;2.95;;
21012;SDS011;10664;53.582;9.712;2022-07-22T08:54:46;3.90;;;2.42;;
21012;SDS011;10664;53.582;9.712;2022-07-22T08:57:12;3.15;;;2.53;;
21012;SDS011;10664;53.582;9.712;2022-07-22T08:59:48;5.68;;;2.80;;
21012;SDS011;10664;53.582;9.712;2022-07-22T09:02:14;5.13;;;2.60;;
21012;SDS011;10664;53.582;9.712;2022-07-22T09:04:57;4.63;;;3.25;;
21012;SDS011;10664;53.582;9.712;2022-07-22T09:07:30;5.22;;;2.83;;
21012;SDS011;10664;53.582;9.712;2022-07-22T09:09:57;3.65;;;2.72;;
21012;SDS011;10664;53.582;9.712;2022-07-22T09:12:23;4.88;;;2.50;;
21012;SDS011;10664;53.582;9.712;2022-07-22T09:14:51;4.07;;;2.33;;
21012;SDS011;10664;53.582;9.712;2022-07-22T09:19:53;3.55;;;2.50;;
21012;SDS011;10664;53.582;9.712;2022-07-22T09:22:32;4.47;;;2.60;;
21012;SDS011;10664;53.582;9.712;2022-07-22T09:24:58;4.50;;;2.85;;
21012;SDS011;10664;53.582;9.712;2022-07-22T09:27:26;3.53;;;2.63;;
21012;SDS011;10664;53.582;9.712;2022-07-22T09:29:52;2.58;;;2.00;;
21012;SDS011;10664;53.582;9.712;2022-07-22T09:32:21;3.85;;;2.38;;
21012;SDS011;10664;53.582;9.712;2022-07-22T09:34:47;2.95;;;2.25;;
21012;SDS011;10664;53.582;9.712;2022-07-22T09:37:13;3.65;;;2.72;;
21012;SDS011;10664;53.582;9.712;2022-07-22T09:39:39;4.82;;;2.33;;
21012;SDS011;10664;53.582;9.712;2022-07-22T09:42:05;4.55;;;2.58;;
21012;SDS011;10664;53.582;9.712;2022-07-22T09:44:33;3.47;;;2.40;;
21012;SDS011;10664;53.582;9.712;2022-07-22T09:46:59;2.58;;;2.20;;
21012;SDS011;10664;53.582;9.712;2022-07-22T09:49:35;2.85;;;2.22;;
21012;SDS011;10664;53.582;9.712;2022-07-22T09:52:04;4.18;;;2.33;;
21012;SDS011;10664;53.582;9.712;2022-07-22T09:54:30;4.32;;;2.08;;
21012;SDS011;10664;53.582;9.712;2022-07-22T09:56:56;3.08;;;2.00;;
21012;SDS011;10664;53.582;9.712;2022-07-22T09:59:22;3.20;;;1.90;;
21012;SDS011;10664;53.582;9.712;2022-07-22T10:01:50;2.63;;;2.10;;
21012;SDS011;10664;53.582;9.712;2022-07-22T10:04:16;3.80;;;2.50;;
21012;SDS011;10664;53.582;9.712;2022-07-22T10:06:43;2.83;;;2.28;;
21012;SDS011;10664;53.582;9.712;2022-07-22T10:09:10;2.97;;;2.50;;
21012;SDS011;10664;53.582;9.712;2022-07-22T10:11:36;4.07;;;2.72;;
21012;SDS011;10664;53.582;9.712;2022-07-22T10:14:02;4.20;;;2.40;;
21012;SDS011;10664;53.582;9.712;2022-07-22T10:16:28;2.78;;;2.10;;
21012;SDS011;10664;53.582;9.712;2022-07-22T10:18:54;3.97;;;2.45;;
21012;SDS011;10664;53.582;9.712;2022-07-22T10:21:20;4.30;;;2.47;;
21012;SDS011;10664;53.582;9.712;2022-07-22T10:24:10;5.00;;;2.47;;
21012;SDS011;10664;53.582;9.712;2022-07-22T10:26:50;3.25;;;2.50;;
21012;SDS011;10664;53.582;9.712;2022-07-22T10:29:32;3.92;;;2.67;;
21012;SDS011;10664;53.582;9.712;2022-07-22T10:37:36;3.13;;;2.20;;
21012;SDS011;10664;53.582;9.712;2022-07-22T10:43:04;8.10;;;3.50;;
21012;SDS011;10664;53.582;9.712;2022-07-22T10:45:34;7.10;;;3.50;;
21012;SDS011;10664;53.582;9.712;2022-07-22T10:48:02;6.35;;;3.53;;
21012;SDS011;10664;53.582;9.712;2022-07-22T10:53:09;3.88;;;2.53;;
21012;SDS011;10664;53.582;9.712;2022-07-22T10:55:36;4.22;;;2.20;;
21012;SDS011;10664;53.582;9.712;2022-07-22T11:00:47;4.25;;;2.30;;
21012;SDS011;10664;53.582;9.712;2022-07-22T11:03:13;3.42;;;2.25;;
21012;SDS011;10664;53.582;9.712;2022-07-22T11:05:49;5.15;;;2.53;;
21012;SDS011;10664;53.582;9.712;2022-07-22T11:08:15;3.55;;;2.20;;
21012;SDS011;10664;53.582;9.712;2022-07-22T11:10:46;3.00;;;2.20;;
21012;SDS011;10664;53.582;9.712;2022-07-22T11:13:13;3.33;;;2.15;;
21012;SDS011;10664;53.582;9.712;2022-07-22T11:15:55;3.17;;;2.10;;
21012;SDS011;10664;53.582;9.712;2022-07-22T11:18:21;3.90;;;2.10;;
21012;SDS011;10664;53.582;9.712;2022-07-22T11:20:47;3.42;;;2.05;;
21012;SDS011;10664;53.582;9.712;2022-07-22T11:23:14;2.58;;;2.10;;
21012;SDS011;10664;53.582;9.712;2022-07-22T11:25:41;3.95;;;2.10;;
21012;SDS011;10664;53.582;9.712;2022-07-22T11:28:07;2.88;;;2.00;;
21012;SDS011;10664;53.582;9.712;2022-07-22T11:30:33;3.55;;;1.85;;
21012;SDS011;10664;53.582;9.712;2022-07-22T11:33:01;4.85;;;2.22;;
21012;SDS011;10664;53.582;9.712;2022-07-22T11:35:27;3.50;;;1.98;;
21012;SDS011;10664;53.582;9.712;2022-07-22T11:37:56;2.92;;;2.00;;
21012;SDS011;10664;53.582;9.712;2022-07-22T11:40:22;3.15;;;2.00;;
21012;SDS011;10664;53.582;9.712;2022-07-22T11:43:00;4.10;;;2.15;;
21012;SDS011;10664;53.582;9.712;2022-07-22T11:45:26;5.95;;;2.13;;
21012;SDS011;10664;53.582;9.712;2022-07-22T11:47:52;2.28;;;1.88;;
21012;SDS011;10664;53.582;9.712;2022-07-22T11:50:28;2.10;;;1.50;;
21012;SDS011;10664;53.582;9.712;2022-07-22T11:52:54;2.97;;;1.80;;
21012;SDS011;10664;53.582;9.712;2022-07-22T11:55:20;2.28;;;1.85;;
21012;SDS011;10664;53.582;9.712;2022-07-22T11:57:46;2.00;;;1.83;;
21012;SDS011;10664;53.582;9.712;2022-07-22T12:00:13;2.72;;;1.58;;
21012;SDS011;10664;53.582;9.712;2022-07-22T12:02:39;3.28;;;1.50;;
21012;SDS011;10664;53.582;9.712;2022-07-22T12:05:06;2.83;;;1.73;;
21012;SDS011;10664;53.582;9.712;2022-07-22T12:07:33;2.60;;;1.92;;
21012;SDS011;10664;53.582;9.712;2022-07-22T12:09:59;3.60;;;1.70;;
21012;SDS011;10664;53.582;9.712;2022-07-22T12:12:41;3.13;;;1.70;;
21012;SDS011;10664;53.582;9.712;2022-07-22T12:15:07;2.22;;;1.50;;
21012;SDS011;10664;53.582;9.712;2022-07-22T12:17:33;1.95;;;1.52;;
21012;SDS011;10664;53.582;9.712;2022-07-22T12:20:09;3.75;;;2.00;;
21012;SDS011;10664;53.582;9.712;2022-07-22T12:22:35;1.85;;;1.67;;
21012;SDS011;10664;53.582;9.712;2022-07-22T12:25:10;3.00;;;1.52;;
21012;SDS011;10664;53.582;9.712;2022-07-22T12:27:36;1.50;;;1.40;;
21012;SDS011;10664;53.582;9.712;2022-07-22T12:30:10;2.10;;;1.48;;
21012;SDS011;10664;53.582;9.712;2022-07-22T12:32:36;3.90;;;1.60;;
21012;SDS011;10664;53.582;9.712;2022-07-22T12:35:12;1.98;;;1.60;;
21012;SDS011;10664;53.582;9.712;2022-07-22T12:37:43;2.47;;;1.40;;
21012;SDS011;10664;53.582;9.712;2022-07-22T12:40:10;2.75;;;1.60;;
21012;SDS011;10664;53.582;9.712;2022-07-22T12:42:41;2.25;;;1.60;;
21012;SDS011;10664;53.582;9.712;2022-07-22T12:45:08;2.50;;;1.70;;
21012;SDS011;10664;53.582;9.712;2022-07-22T12:47:38;1.67;;;1.40;;
21012;SDS011;10664;53.582;9.712;2022-07-22T12:50:21;2.65;;;1.63;;
21012;SDS011;10664;53.582;9.712;2022-07-22T12:52:48;2.15;;;1.20;;
21012;SDS011;10664;53.582;9.712;2022-07-22T12:55:14;3.70;;;1.55;;
21012;SDS011;10664;53.582;9.712;2022-07-22T12:57:40;2.67;;;1.23;;
21012;SDS011;10664;53.582;9.712;2022-07-22T13:00:06;3.13;;;1.65;;
21012;SDS011;10664;53.582;9.712;2022-07-22T13:02:32;2.88;;;1.52;;
21012;SDS011;10664;53.582;9.712;2022-07-22T13:04:59;1.83;;;1.48;;
21012;SDS011;10664;53.582;9.712;2022-07-22T13:07:25;2.47;;;1.45;;
21012;SDS011;10664;53.582;9.712;2022-07-22T13:09:51;2.42;;;1.70;;
21012;SDS011;10664;53.582;9.712;2022-07-22T13:12:17;1.80;;;1.50;;
21012;SDS011;10664;53.582;9.712;2022-07-22T13:14:43;2.15;;;1.80;;
21012;SDS011;10664;53.582;9.712;2022-07-22T13:17:08;2.35;;;1.55;;
21012;SDS011;10664;53.582;9.712;2022-07-22T13:19:36;2.78;;;1.50;;
21012;SDS011;10664;53.582;9.712;2022-07-22T13:22:02;1.50;;;1.40;;
21012;SDS011;10664;53.582;9.712;2022-07-22T13:24:28;1.75;;;1.40;;
21012;SDS011;10664;53.582;9.712;2022-07-22T13:26:54;1.75;;;1.45;;
21012;SDS011;10664;53.582;9.712;2022-07-22T13:29:19;1.75;;;1.50;;
21012;SDS011;10664;53.582;9.712;2022-07-22T13:31:45;2.20;;;1.60;;
21012;SDS011;10664;53.582;9.712;2022-07-22T13:34:14;2.53;;;1.80;;
21012;SDS011;10664;53.582;9.712;2022-07-22T13:36:40;1.63;;;1.40;;
21012;SDS011;10664;53.582;9.712;2022-07-22T13:39:06;1.77;;;1.35;;
21012;SDS011;10664;53.582;9.712;2022-07-22T13:41:32;1.90;;;1.63;;
21012;SDS011;10664;53.582;9.712;2022-07-22T13:43:58;1.98;;;1.50;;
21012;SDS011;10664;53.582;9.712;2022-07-22T13:46:24;1.83;;;1.40;;
21012;SDS011;10664;53.582;9.712;2022-07-22T13:48:50;1.63;;;1.50;;
21012;SDS011;10664;53.582;9.712;2022-07-22T13:51:16;1.30;;;1.20;;
21012;SDS011;10664;53.582;9.712;2022-07-22T13:53:42;1.77;;;1.52;;
21012;SDS011;10664;53.582;9.712;2022-07-22T13:56:08;2.67;;;1.65;;
21012;SDS011;10664;53.582;9.712;2022-07-22T13:58:35;2.55;;;1.55;;
21012;SDS011;10664;53.582;9.712;2022-07-22T14:01:01;2.47;;;1.60;;
21012;SDS011;10664;53.582;9.712;2022-07-22T14:03:27;2.35;;;1.67;;
21012;SDS011;10664;53.582;9.712;2022-07-22T14:05:54;2.08;;;1.63;;
21012;SDS011;10664;53.582;9.712;2022-07-22T14:08:20;1.88;;;1.42;;
21012;SDS011;10664;53.582;9.712;2022-07-22T14:10:45;1.70;;;1.40;;
21012;SDS011;10664;53.582;9.712;2022-07-22T14:13:12;2.15;;;1.50;;
21012;SDS011;10664;53.582;9.712;2022-07-22T14:15:37;2.22;;;1.50;;
21012;SDS011;10664;53.582;9.712;2022-07-22T14:18:03;1.77;;;1.30;;
21012;SDS011;10664;53.582;9.712;2022-07-22T14:20:31;2.53;;;1.60;;
21012;SDS011;10664;53.582;9.712;2022-07-22T14:22:57;2.58;;;1.30;;
21012;SDS011;10664;53.582;9.712;2022-07-22T14:25:23;1.77;;;1.40;;
21012;SDS011;10664;53.582;9.712;2022-07-22T14:27:49;1.75;;;1.33;;
21012;SDS011;10664;53.582;9.712;2022-07-22T14:30:15;1.95;;;1.63;;
21012;SDS011;10664;53.582;9.712;2022-07-22T14:32:41;1.40;;;1.30;;
21012;SDS011;10664;53.582;9.712;2022-07-22T14:35:07;1.30;;;1.20;;
21012;SDS011;10664;53.582;9.712;2022-07-22T14:37:33;1.33;;;1.23;;
21012;SDS011;10664;53.582;9.712;2022-07-22T14:39:59;2.58;;;1.38;;
21012;SDS011;10664;53.582;9.712;2022-07-22T14:42:25;1.67;;;1.40;;
21012;SDS011;10664;53.582;9.712;2022-07-22T14:44:51;1.95;;;1.27;;
21012;SDS011;10664;53.582;9.712;2022-07-22T14:47:17;1.45;;;1.15;;
21012;SDS011;10664;53.582;9.712;2022-07-22T14:49:43;1.30;;;1.10;;
21012;SDS011;10664;53.582;9.712;2022-07-22T14:52:09;1.08;;;1.00;;
21012;SDS011;10664;53.582;9.712;2022-07-22T14:54:35;1.58;;;1.10;;
21012;SDS011;10664;53.582;9.712;2022-07-22T14:57:01;1.70;;;1.10;;
21012;SDS011;10664;53.582;9.712;2022-07-22T14:59:27;1.58;;;1.20;;
21012;SDS011;10664;53.582;9.712;2022-07-22T15:01:54;1.33;;;1.20;;
21012;SDS011;10664;53.582;9.712;2022-07-22T15:04:20;1.75;;;1.13;;